This is the latest recevied weather packets stored in our database for station/object TVARMINN. If no packets are shown the sender has not sent any weather packets the latest 10 day(s).
| Time | Temp. | Humidity | Pressure | Rain* | Wind** | Luminosity | Snow |
|---|---|---|---|---|---|---|---|
| 1777622823 | 15.56° C | 48% | 1021.6 hPa | 0 mm | - | - | - |
| 1777621621 | 15° C | 49% | 1021.6 hPa | 0 mm | - | - | - |
| 1777620420 | 12.78° C | 61% | 1021.8 hPa | 0 mm | - | - | - |
| 1777619220 | 11.67° C | 64% | 1021.8 hPa | 0 mm | - | - | - |
| 1777618020 | 10.56° C | 68% | 1021.8 hPa | 0 mm | - | - | - |
| 1777616821 | 11.11° C | 66% | 1021.8 hPa | 0 mm | - | - | - |
| 1777615620 | 10.56° C | 67% | 1021.7 hPa | 0 mm | - | - | - |
| 1777614420 | 10.56° C | 66% | 1021.9 hPa | 0 mm | - | - | - |
| 1777613219 | 10° C | 70% | 1021.9 hPa | 0 mm | - | - | - |
| 1777612020 | 8.89° C | 74% | 1021.9 hPa | 0 mm | - | - | - |
| 1777610820 | 7.78° C | 77% | 1022 hPa | 0 mm | - | - | - |
| 1777609620 | 7.22° C | 80% | 1022.1 hPa | 0 mm | - | - | - |
| 1777608421 | 6.67° C | 82% | 1022.1 hPa | 0 mm | - | - | - |
| 1777607220 | 6.11° C | 85% | 1022.1 hPa | 0 mm | - | - | - |
| 1777606021 | 6.11° C | 86% | 1022.2 hPa | 0 mm | - | - | - |
| 1777604820 | 5.56° C | 88% | 1022.3 hPa | 0 mm | - | - | - |
| 1777603621 | 5.56° C | 88% | 1022.4 hPa | 0 mm | - | - | - |
| 1777602421 | 5.56° C | 87% | 1022.4 hPa | 0 mm | - | - | - |
| 1777601220 | 6.11° C | 87% | 1022.5 hPa | 0 mm | - | - | - |
| 1777600020 | 6.11° C | 86% | 1022.3 hPa | 0 mm | - | - | - |
| 1777598820 | 6.11° C | 86% | 1022.2 hPa | 0 mm | - | - | - |
| 1777597619 | 6.67° C | 85% | 1022.3 hPa | 0 mm | - | - | - |
| 1777596420 | 6.67° C | 83% | 1022.3 hPa | 0 mm | - | - | - |
| 1777595220 | 7.22° C | 82% | 1022.3 hPa | 0 mm | - | - | - |
| 1777594019 | 7.22° C | 82% | 1022.3 hPa | 0 mm | - | - | - |
* Rain latest hour (hover to see other rain measurements)
** Current wind speed in m/s (hover to see current wind gust speed)